Stafford, United Kingdom
Current Conditions -  °F | °C
As of 10:50 PM on Saturday 25 Oct 2014 (Local Time) from EGOS Reporting Station
Few Clouds Few Clouds  
Wind Chill: 54°   Ceiling: Unl
Heat Index: 54°   Visibility: 6mi
Dew Point: 46°   Wind: 18mph
Humidity: 77%   Direction: 230°SW
Pressure: 30"   Gusts: NA
Location:  52.81°N, 2.12°W
Report Text: EGOS 252150Z AUTO 23016KT 9999 FEW036/// 12/08 Q1016
Loading
Personal Weather Stations






























Interactive Weather Map
Tropical Storm Tracking
New forecast layout! Learn more

10-Day Weather Forecast

Advertisements
Track Severe Weather on mobile